sensor_id;sensor_type;location;lat;lon;timestamp;pressure;altitude;pressure_sealevel;temperature;humidity
6835;BME280;3455;42.150;24.734;2023-02-12T00:02:15;65625.09;;;3.14;39.54
6835;BME280;3455;42.150;24.734;2023-02-12T00:04:43;65668.31;;;3.25;39.60
6835;BME280;3455;42.150;24.734;2023-02-12T00:07:10;65563.72;;;2.90;40.58
6835;BME280;3455;42.150;24.734;2023-02-12T00:09:37;65613.84;;;2.77;40.76
6835;BME280;3455;42.150;24.734;2023-02-12T00:12:06;65638.56;;;3.17;40.46
6835;BME280;3455;42.150;24.734;2023-02-12T00:14:33;65589.44;;;2.95;40.49
6835;BME280;3455;42.150;24.734;2023-02-12T00:17:01;65603.50;;;3.17;40.02
6835;BME280;3455;42.150;24.734;2023-02-12T00:19:30;65603.63;;;3.03;40.30
6835;BME280;3455;42.150;24.734;2023-02-12T00:22:01;65626.25;;;3.15;40.00
6835;BME280;3455;42.150;24.734;2023-02-12T00:24:32;65622.66;;;3.07;40.65
6835;BME280;3455;42.150;24.734;2023-02-12T00:26:59;65624.06;;;2.99;40.73
6835;BME280;3455;42.150;24.734;2023-02-12T00:29:26;65618.78;;;3.08;40.87
6835;BME280;3455;42.150;24.734;2023-02-12T00:31:59;65691.78;;;3.28;40.92
6835;BME280;3455;42.150;24.734;2023-02-12T00:34:28;65643.97;;;3.12;40.25
6835;BME280;3455;42.150;24.734;2023-02-12T00:36:58;65613.66;;;3.03;40.50
6835;BME280;3455;42.150;24.734;2023-02-12T00:39:27;65631.06;;;2.92;40.31
6835;BME280;3455;42.150;24.734;2023-02-12T00:42:01;65645.13;;;3.14;40.40
6835;BME280;3455;42.150;24.734;2023-02-12T00:44:29;65665.44;;;3.23;40.12
6835;BME280;3455;42.150;24.734;2023-02-12T00:46:57;65600.75;;;3.01;40.36
6835;BME280;3455;42.150;24.734;2023-02-12T00:49:27;65645.31;;;3.36;40.42
6835;BME280;3455;42.150;24.734;2023-02-12T00:52:00;65644.44;;;3.44;39.78
6835;BME280;3455;42.150;24.734;2023-02-12T00:54:31;65656.56;;;3.48;39.63
6835;BME280;3455;42.150;24.734;2023-02-12T00:56:59;65516.22;;;2.65;39.67
6835;BME280;3455;42.150;24.734;2023-02-12T00:59:28;65643.63;;;3.53;38.41
6835;BME280;3455;42.150;24.734;2023-02-12T01:01:57;65701.53;;;3.80;37.81
6835;BME280;3455;42.150;24.734;2023-02-12T01:04:25;65714.22;;;3.84;36.86
6835;BME280;3455;42.150;24.734;2023-02-12T01:06:55;65748.84;;;4.13;36.26
6835;BME280;3455;42.150;24.734;2023-02-12T01:09:23;65714.09;;;3.98;35.74
6835;BME280;3455;42.150;24.734;2023-02-12T01:11:55;65752.09;;;4.18;35.76
6835;BME280;3455;42.150;24.734;2023-02-12T01:14:23;65738.47;;;4.28;34.77
6835;BME280;3455;42.150;24.734;2023-02-12T01:16:54;65723.00;;;4.51;34.61
6835;BME280;3455;42.150;24.734;2023-02-12T01:19:21;65751.69;;;4.58;34.68
6835;BME280;3455;42.150;24.734;2023-02-12T01:21:48;65739.88;;;4.63;34.33
6835;BME280;3455;42.150;24.734;2023-02-12T01:24:14;65776.78;;;4.58;34.39
6835;BME280;3455;42.150;24.734;2023-02-12T01:26:41;65788.22;;;4.51;34.24
6835;BME280;3455;42.150;24.734;2023-02-12T01:29:09;65805.31;;;4.79;34.08
6835;BME280;3455;42.150;24.734;2023-02-12T01:31:37;65766.59;;;4.72;34.20
6835;BME280;3455;42.150;24.734;2023-02-12T01:34:05;65834.44;;;4.83;32.99
6835;BME280;3455;42.150;24.734;2023-02-12T01:36:33;65830.28;;;5.46;32.52
6835;BME280;3455;42.150;24.734;2023-02-12T01:39:00;65765.09;;;4.86;32.55
6835;BME280;3455;42.150;24.734;2023-02-12T01:41:29;65837.31;;;5.21;32.07
6835;BME280;3455;42.150;24.734;2023-02-12T01:44:09;65977.16;;;5.65;31.73
6835;BME280;3455;42.150;24.734;2023-02-12T01:46:37;65857.03;;;5.73;31.80
6835;BME280;3455;42.150;24.734;2023-02-12T01:49:06;65931.94;;;6.01;31.00
6835;BME280;3455;42.150;24.734;2023-02-12T01:51:34;65896.72;;;5.83;30.99
6835;BME280;3455;42.150;24.734;2023-02-12T01:54:04;65875.19;;;6.09;30.80
6835;BME280;3455;42.150;24.734;2023-02-12T01:56:32;65852.91;;;5.94;31.41
6835;BME280;3455;42.150;24.734;2023-02-12T01:58:59;65925.47;;;6.09;30.66
6835;BME280;3455;42.150;24.734;2023-02-12T02:01:28;65859.56;;;5.55;31.49
6835;BME280;3455;42.150;24.734;2023-02-12T02:03:59;65857.25;;;5.53;31.60
6835;BME280;3455;42.150;24.734;2023-02-12T02:06:29;65811.34;;;5.12;32.04
6835;BME280;3455;42.150;24.734;2023-02-12T02:08:57;65817.72;;;5.11;31.87
6835;BME280;3455;42.150;24.734;2023-02-12T02:11:24;65896.03;;;5.78;31.60
6835;BME280;3455;42.150;24.734;2023-02-12T02:14:17;65820.53;;;5.20;31.48
6835;BME280;3455;42.150;24.734;2023-02-12T02:17:07;65853.97;;;5.36;31.14
6835;BME280;3455;42.150;24.734;2023-02-12T02:19:53;65796.41;;;4.98;31.50
6835;BME280;3455;42.150;24.734;2023-02-12T02:22:33;65848.44;;;5.29;31.39
6835;BME280;3455;42.150;24.734;2023-02-12T02:25:35;65890.00;;;5.64;30.44
6835;BME280;3455;42.150;24.734;2023-02-12T02:28:24;65863.16;;;5.44;30.76
6835;BME280;3455;42.150;24.734;2023-02-12T02:30:59;65842.91;;;5.40;31.03
6835;BME280;3455;42.150;24.734;2023-02-12T02:33:36;65841.31;;;5.25;31.33
6835;BME280;3455;42.150;24.734;2023-02-12T02:36:21;65894.03;;;5.68;30.79
6835;BME280;3455;42.150;24.734;2023-02-12T02:38:53;65868.03;;;5.58;30.92
6835;BME280;3455;42.150;24.734;2023-02-12T02:41:26;65863.16;;;5.44;31.64
6835;BME280;3455;42.150;24.734;2023-02-12T02:43:55;65870.41;;;5.53;31.83
6835;BME280;3455;42.150;24.734;2023-02-12T02:46:26;65873.41;;;5.78;31.66
6835;BME280;3455;42.150;24.734;2023-02-12T02:48:59;65874.69;;;5.66;31.96
6835;BME280;3455;42.150;24.734;2023-02-12T02:51:30;65892.34;;;5.77;31.17
6835;BME280;3455;42.150;24.734;2023-02-12T02:54:03;65913.75;;;6.19;31.14
6835;BME280;3455;42.150;24.734;2023-02-12T02:56:32;65939.81;;;6.40;30.54
6835;BME280;3455;42.150;24.734;2023-02-12T02:59:03;65968.03;;;6.11;30.91
6835;BME280;3455;42.150;24.734;2023-02-12T03:01:35;65909.06;;;6.21;31.38
6835;BME280;3455;42.150;24.734;2023-02-12T03:04:06;65902.63;;;5.93;30.92
6835;BME280;3455;42.150;24.734;2023-02-12T03:06:37;65915.72;;;6.00;30.85
6835;BME280;3455;42.150;24.734;2023-02-12T03:09:14;65881.78;;;6.06;31.50
6835;BME280;3455;42.150;24.734;2023-02-12T03:11:43;65889.78;;;6.02;31.25
6835;BME280;3455;42.150;24.734;2023-02-12T03:14:13;65875.75;;;5.92;30.76
6835;BME280;3455;42.150;24.734;2023-02-12T03:16:48;65919.28;;;6.08;30.92
6835;BME280;3455;42.150;24.734;2023-02-12T03:19:19;65919.28;;;6.08;30.21
6835;BME280;3455;42.150;24.734;2023-02-12T03:21:52;65959.38;;;6.21;30.51
6835;BME280;3455;42.150;24.734;2023-02-12T03:24:24;65992.88;;;6.38;30.08
6835;BME280;3455;42.150;24.734;2023-02-12T03:26:56;65945.88;;;6.18;30.27
6835;BME280;3455;42.150;24.734;2023-02-12T03:29:25;65902.91;;;6.20;30.33
6835;BME280;3455;42.150;24.734;2023-02-12T03:32:02;65915.75;;;6.30;30.04
6835;BME280;3455;42.150;24.734;2023-02-12T03:34:43;65929.13;;;6.10;30.06
6835;BME280;3455;42.150;24.734;2023-02-12T03:37:17;65962.13;;;6.67;29.83
6835;BME280;3455;42.150;24.734;2023-02-12T03:39:50;65966.31;;;6.75;29.41
6835;BME280;3455;42.150;24.734;2023-02-12T03:42:26;65958.38;;;6.43;29.42
6835;BME280;3455;42.150;24.734;2023-02-12T03:45:01;65796.34;;;5.23;31.36
6835;BME280;3455;42.150;24.734;2023-02-12T03:47:38;65837.75;;;5.35;31.86
6835;BME280;3455;42.150;24.734;2023-02-12T03:50:11;65844.63;;;5.41;31.48
6835;BME280;3455;42.150;24.734;2023-02-12T03:52:39;65765.28;;;4.84;32.15
6835;BME280;3455;42.150;24.734;2023-02-12T03:55:06;65825.97;;;5.16;31.45
6835;BME280;3455;42.150;24.734;2023-02-12T03:57:38;65831.84;;;5.43;31.85
6835;BME280;3455;42.150;24.734;2023-02-12T04:00:09;65862.28;;;5.53;30.99
6835;BME280;3455;42.150;24.734;2023-02-12T04:02:38;65812.78;;;5.04;31.81
6835;BME280;3455;42.150;24.734;2023-02-12T04:05:06;65808.84;;;4.94;32.55
6835;BME280;3455;42.150;24.734;2023-02-12T04:07:34;65788.97;;;5.10;32.50
6835;BME280;3455;42.150;24.734;2023-02-12T04:10:02;65868.31;;;5.31;32.06
6835;BME280;3455;42.150;24.734;2023-02-12T04:12:39;65846.19;;;5.38;32.33
6835;BME280;3455;42.150;24.734;2023-02-12T04:15:28;65902.03;;;5.93;32.02
6835;BME280;3455;42.150;24.734;2023-02-12T04:18:06;65906.09;;;5.96;31.74
6835;BME280;3455;42.150;24.734;2023-02-12T04:20:41;65916.41;;;6.23;31.54
6835;BME280;3455;42.150;24.734;2023-02-12T04:23:24;65958.38;;;6.43;30.72
6835;BME280;3455;42.150;24.734;2023-02-12T04:26:01;65968.09;;;6.88;30.02
6835;BME280;3455;42.150;24.734;2023-02-12T04:28:36;65996.50;;;7.22;29.55
6835;BME280;3455;42.150;24.734;2023-02-12T04:31:12;65983.31;;;6.92;29.50
6835;BME280;3455;42.150;24.734;2023-02-12T04:33:46;65990.22;;;6.98;29.33
6835;BME280;3455;42.150;24.734;2023-02-12T04:36:20;65989.41;;;6.71;29.35
6835;BME280;3455;42.150;24.734;2023-02-12T04:38:51;65912.63;;;6.47;30.36
6835;BME280;3455;42.150;24.734;2023-02-12T04:41:19;65919.94;;;6.20;30.15
6835;BME280;3455;42.150;24.734;2023-02-12T04:43:46;65926.19;;;6.14;30.31
6835;BME280;3455;42.150;24.734;2023-02-12T04:46:13;65944.09;;;6.71;29.68
6835;BME280;3455;42.150;24.734;2023-02-12T04:48:49;65926.31;;;6.37;29.75
6835;BME280;3455;42.150;24.734;2023-02-12T04:51:17;65947.41;;;6.51;30.24
6835;BME280;3455;42.150;24.734;2023-02-12T04:53:44;65950.34;;;6.18;29.69
6835;BME280;3455;42.150;24.734;2023-02-12T04:56:11;65952.63;;;6.38;30.08
6835;BME280;3455;42.150;24.734;2023-02-12T04:58:38;65946.88;;;6.33;30.50
6835;BME280;3455;42.150;24.734;2023-02-12T05:01:05;65979.22;;;6.48;30.06
6835;BME280;3455;42.150;24.734;2023-02-12T05:03:33;65955.50;;;6.22;30.75
6835;BME280;3455;42.150;24.734;2023-02-12T05:06:03;65957.88;;;6.83;30.26
6835;BME280;3455;42.150;24.734;2023-02-12T05:08:30;66003.63;;;6.97;29.92
6835;BME280;3455;42.150;24.734;2023-02-12T05:11:02;65984.22;;;6.84;30.58
6835;BME280;3455;42.150;24.734;2023-02-12T05:13:29;65970.38;;;6.90;30.60
6835;BME280;3455;42.150;24.734;2023-02-12T05:15:56;66014.09;;;7.11;29.78
6835;BME280;3455;42.150;24.734;2023-02-12T05:18:22;65991.59;;;6.50;30.88
6835;BME280;3455;42.150;24.734;2023-02-12T05:20:54;65991.72;;;6.73;30.54
6835;BME280;3455;42.150;24.734;2023-02-12T05:23:24;65988.69;;;6.66;31.26
6835;BME280;3455;42.150;24.734;2023-02-12T05:25:51;66006.47;;;6.99;30.63
6835;BME280;3455;42.150;24.734;2023-02-12T05:28:18;65968.09;;;6.70;31.31
6835;BME280;3455;42.150;24.734;2023-02-12T05:30:44;65973.31;;;6.56;31.13
6835;BME280;3455;42.150;24.734;2023-02-12T05:33:11;66018.13;;;6.96;30.82
6835;BME280;3455;42.150;24.734;2023-02-12T05:35:38;65995.69;;;6.94;31.36
6835;BME280;3455;42.150;24.734;2023-02-12T05:38:05;66028.84;;;7.37;30.60
6835;BME280;3455;42.150;24.734;2023-02-12T05:40:33;66098.97;;;7.59;30.48
6835;BME280;3455;42.150;24.734;2023-02-12T05:43:00;65941.69;;;6.46;31.32
6835;BME280;3455;42.150;24.734;2023-02-12T05:45:27;65963.00;;;7.06;30.88
6835;BME280;3455;42.150;24.734;2023-02-12T05:47:54;66100.94;;;7.70;29.96
6835;BME280;3455;42.150;24.734;2023-02-12T05:50:20;66078.75;;;7.77;29.81
6835;BME280;3455;42.150;24.734;2023-02-12T05:52:47;66082.06;;;7.76;29.61
6835;BME280;3455;42.150;24.734;2023-02-12T05:55:14;66100.94;;;7.70;29.75
6835;BME280;3455;42.150;24.734;2023-02-12T05:57:42;66170.63;;;8.14;29.20
6835;BME280;3455;42.150;24.734;2023-02-12T06:00:10;66073.69;;;7.77;29.23
6835;BME280;3455;42.150;24.734;2023-02-12T06:02:37;66058.00;;;7.48;30.07
6835;BME280;3455;42.150;24.734;2023-02-12T06:05:04;66117.81;;;8.30;29.22
6835;BME280;3455;42.150;24.734;2023-02-12T06:07:31;66174.03;;;8.53;28.41
6835;BME280;3455;42.150;24.734;2023-02-12T06:09:58;66132.47;;;7.94;29.35
6835;BME280;3455;42.150;24.734;2023-02-12T06:12:25;66096.78;;;7.62;30.14
6835;BME280;3455;42.150;24.734;2023-02-12T06:14:53;66121.41;;;7.79;29.98
6835;BME280;3455;42.150;24.734;2023-02-12T06:17:19;66120.63;;;8.10;29.39
6835;BME280;3455;42.150;24.734;2023-02-12T06:19:46;66130.25;;;8.14;29.76
6835;BME280;3455;42.150;24.734;2023-02-12T06:22:13;66124.47;;;8.27;28.77
6835;BME280;3455;42.150;24.734;2023-02-12T06:24:39;66127.78;;;8.26;29.05
6835;BME280;3455;42.150;24.734;2023-02-12T06:27:06;66179.34;;;8.63;29.01
6835;BME280;3455;42.150;24.734;2023-02-12T06:29:33;66188.59;;;8.93;28.66
6835;BME280;3455;42.150;24.734;2023-02-12T06:32:01;66180.38;;;8.41;29.73
6835;BME280;3455;42.150;24.734;2023-02-12T06:34:28;66165.84;;;8.24;29.61
6835;BME280;3455;42.150;24.734;2023-02-12T06:36:55;66210.16;;;8.81;29.32
6835;BME280;3455;42.150;24.734;2023-02-12T06:39:22;66179.34;;;8.63;29.79
6835;BME280;3455;42.150;24.734;2023-02-12T06:41:48;66240.28;;;8.94;29.45
6835;BME280;3455;42.150;24.734;2023-02-12T06:44:15;66230.22;;;9.06;29.38
6835;BME280;3455;42.150;24.734;2023-02-12T06:46:42;66229.81;;;9.21;29.23
6835;BME280;3455;42.150;24.734;2023-02-12T06:49:11;66190.91;;;8.95;29.47
6835;BME280;3455;42.150;24.734;2023-02-12T06:51:38;66250.56;;;9.62;28.57
6835;BME280;3455;42.150;24.734;2023-02-12T06:54:11;66257.25;;;9.59;28.92
6835;BME280;3455;42.150;24.734;2023-02-12T06:56:38;66335.22;;;10.15;28.07
6835;BME280;3455;42.150;24.734;2023-02-12T06:59:05;66254.19;;;9.29;29.11
6835;BME280;3455;42.150;24.734;2023-02-12T07:01:31;66287.47;;;9.54;29.18
6835;BME280;3455;42.150;24.734;2023-02-12T07:04:00;66297.44;;;9.90;29.08
6835;BME280;3455;42.150;24.734;2023-02-12T07:06:30;66310.03;;;10.20;28.90
6835;BME280;3455;42.150;24.734;2023-02-12T07:08:57;66387.28;;;10.25;28.71
6835;BME280;3455;42.150;24.734;2023-02-12T07:11:24;66309.09;;;10.05;29.36
6835;BME280;3455;42.150;24.734;2023-02-12T07:13:51;66228.91;;;9.29;30.33
6835;BME280;3455;42.150;24.734;2023-02-12T07:16:18;66301.47;;;9.94;29.77
6835;BME280;3455;42.150;24.734;2023-02-12T07:18:45;66384.66;;;10.32;29.50
6835;BME280;3455;42.150;24.734;2023-02-12T07:21:14;66366.97;;;10.66;29.33
6835;BME280;3455;42.150;24.734;2023-02-12T07:23:45;66321.47;;;10.48;29.63
6835;BME280;3455;42.150;24.734;2023-02-12T07:26:14;66336.94;;;10.17;30.25
6835;BME280;3455;42.150;24.734;2023-02-12T07:28:41;66368.72;;;10.67;29.35
6835;BME280;3455;42.150;24.734;2023-02-12T07:31:09;66362.69;;;10.30;29.94
6835;BME280;3455;42.150;24.734;2023-02-12T07:33:41;66377.56;;;10.62;29.60
6835;BME280;3455;42.150;24.734;2023-02-12T07:36:12;66335.41;;;10.42;30.02
6835;BME280;3455;42.150;24.734;2023-02-12T07:38:39;66290.88;;;9.98;30.39
6835;BME280;3455;42.150;24.734;2023-02-12T07:41:10;66382.38;;;10.52;30.46
6835;BME280;3455;42.150;24.734;2023-02-12T07:43:38;66341.19;;;10.47;29.94
6835;BME280;3455;42.150;24.734;2023-02-12T07:46:09;66374.94;;;10.57;29.83
6835;BME280;3455;42.150;24.734;2023-02-12T07:48:36;66441.94;;;11.10;29.13
6835;BME280;3455;42.150;24.734;2023-02-12T07:51:05;66404.78;;;10.90;28.92
6835;BME280;3455;42.150;24.734;2023-02-12T07:53:32;66387.94;;;10.71;29.76
6835;BME280;3455;42.150;24.734;2023-02-12T07:56:07;66477.88;;;11.06;29.44
6835;BME280;3455;42.150;24.734;2023-02-12T07:58:35;66487.63;;;11.78;28.31
6835;BME280;3455;42.150;24.734;2023-02-12T08:01:11;66618.72;;;12.83;27.56
6835;BME280;3455;42.150;24.734;2023-02-12T08:03:38;66574.00;;;12.57;27.10
6835;BME280;3455;42.150;24.734;2023-02-12T08:06:07;66662.03;;;13.10;26.61
6835;BME280;3455;42.150;24.734;2023-02-12T08:08:34;66687.81;;;13.13;27.09
6835;BME280;3455;42.150;24.734;2023-02-12T08:11:03;66610.97;;;12.90;27.37
6835;BME280;3455;42.150;24.734;2023-02-12T08:13:31;66618.00;;;12.89;26.88
6835;BME280;3455;42.150;24.734;2023-02-12T08:16:03;66581.84;;;12.66;27.46
6835;BME280;3455;42.150;24.734;2023-02-12T08:18:31;66631.06;;;12.69;27.91
6835;BME280;3455;42.150;24.734;2023-02-12T08:21:02;66630.38;;;12.87;27.66
6835;BME280;3455;42.150;24.734;2023-02-12T08:23:30;66610.50;;;12.82;27.81
6835;BME280;3455;42.150;24.734;2023-02-12T08:26:08;66586.72;;;12.57;28.40
6835;BME280;3455;42.150;24.734;2023-02-12T08:28:37;66528.97;;;12.05;29.27
6835;BME280;3455;42.150;24.734;2023-02-12T08:31:09;66542.13;;;12.13;29.41
6835;BME280;3455;42.150;24.734;2023-02-12T08:33:36;66544.66;;;12.24;29.70
6835;BME280;3455;42.150;24.734;2023-02-12T08:36:04;66573.09;;;12.42;29.35
6835;BME280;3455;42.150;24.734;2023-02-12T08:38:32;66607.94;;;12.82;29.32
6835;BME280;3455;42.150;24.734;2023-02-12T08:41:03;66623.06;;;13.12;29.59
6835;BME280;3455;42.150;24.734;2023-02-12T08:43:31;66644.22;;;13.21;29.72
6835;BME280;3455;42.150;24.734;2023-02-12T08:46:01;66706.28;;;13.97;29.09
6835;BME280;3455;42.150;24.734;2023-02-12T08:48:29;66796.94;;;14.73;28.47
6835;BME280;3455;42.150;24.734;2023-02-12T08:51:03;66836.91;;;14.97;27.92
6835;BME280;3455;42.150;24.734;2023-02-12T08:53:30;66791.06;;;14.63;28.54
6835;BME280;3455;42.150;24.734;2023-02-12T08:55:56;66718.56;;;13.78;29.79
6835;BME280;3455;42.150;24.734;2023-02-12T08:58:23;66813.25;;;14.31;29.28
6835;BME280;3455;42.150;24.734;2023-02-12T09:00:50;66675.59;;;13.31;30.68
6835;BME280;3455;42.150;24.734;2023-02-12T09:03:16;66536.59;;;12.17;32.72
6835;BME280;3455;42.150;24.734;2023-02-12T09:05:45;66674.53;;;13.23;31.38
6835;BME280;3455;42.150;24.734;2023-02-12T09:08:11;66595.72;;;12.67;31.86
6835;BME280;3455;42.150;24.734;2023-02-12T09:10:38;66565.22;;;12.44;31.47
6835;BME280;3455;42.150;24.734;2023-02-12T09:13:05;66591.78;;;12.79;31.82
6835;BME280;3455;42.150;24.734;2023-02-12T09:15:36;66715.72;;;13.53;31.21
6835;BME280;3455;42.150;24.734;2023-02-12T09:18:03;66665.06;;;13.40;31.02
6835;BME280;3455;42.150;24.734;2023-02-12T09:20:30;66622.97;;;12.84;31.14
6835;BME280;3455;42.150;24.734;2023-02-12T09:22:58;66643.31;;;13.07;31.05
6835;BME280;3455;42.150;24.734;2023-02-12T09:25:25;66637.31;;;12.93;31.74
6835;BME280;3455;42.150;24.734;2023-02-12T09:27:52;66751.28;;;14.21;29.71
6835;BME280;3455;42.150;24.734;2023-02-12T09:30:18;66677.53;;;13.42;31.12
6835;BME280;3455;42.150;24.734;2023-02-12T09:32:45;66759.91;;;14.01;29.82
6835;BME280;3455;42.150;24.734;2023-02-12T09:35:12;66699.47;;;13.84;30.20
6835;BME280;3455;42.150;24.734;2023-02-12T09:37:39;66804.03;;;14.72;29.14
6835;BME280;3455;42.150;24.734;2023-02-12T09:40:17;66856.69;;;15.19;28.73
6835;BME280;3455;42.150;24.734;2023-02-12T09:42:57;66810.41;;;15.16;28.19
6835;BME280;3455;42.150;24.734;2023-02-12T09:45:29;66908.41;;;15.74;27.97
6835;BME280;3455;42.150;24.734;2023-02-12T09:48:07;66818.06;;;15.16;28.88
6835;BME280;3455;42.150;24.734;2023-02-12T09:50:43;66824.91;;;14.68;29.16
6835;BME280;3455;42.150;24.734;2023-02-12T09:53:11;66826.75;;;14.74;29.08
6835;BME280;3455;42.150;24.734;2023-02-12T09:55:41;66869.69;;;15.17;28.65
6835;BME280;3455;42.150;24.734;2023-02-12T09:58:12;66861.34;;;15.50;27.88
6835;BME280;3455;42.150;24.734;2023-02-12T10:00:40;66932.94;;;16.05;27.24
6835;BME280;3455;42.150;24.734;2023-02-12T10:03:12;67258.84;;;18.39;25.04
6835;BME280;3455;42.150;24.734;2023-02-12T10:05:43;67477.88;;;20.71;22.11
6835;BME280;3455;42.150;24.734;2023-02-12T10:11:45;67898.41;;;24.00;18.82
6835;BME280;3455;42.150;24.734;2023-02-12T10:14:27;68245.56;;;26.48;16.82
6835;BME280;3455;42.150;24.734;2023-02-12T10:17:00;67854.75;;;23.87;18.18
6835;BME280;3455;42.150;24.734;2023-02-12T10:19:44;67825.41;;;23.52;18.20
6835;BME280;3455;42.150;24.734;2023-02-12T10:22:24;67661.53;;;22.71;18.73
6835;BME280;3455;42.150;24.734;2023-02-12T10:25:08;67879.63;;;23.95;18.29
6835;BME280;3455;42.150;24.734;2023-02-12T10:27:45;68133.78;;;25.87;16.66
6835;BME280;3455;42.150;24.734;2023-02-12T10:30:18;68195.31;;;26.50;16.38
6835;BME280;3455;42.150;24.734;2023-02-12T10:32:50;68187.66;;;26.38;16.62
6835;BME280;3455;42.150;24.734;2023-02-12T10:35:20;68108.66;;;25.64;16.36
6835;BME280;3455;42.150;24.734;2023-02-12T10:37:51;68289.09;;;27.00;15.75
6835;BME280;3455;42.150;24.734;2023-02-12T10:40:22;67815.34;;;23.70;18.06
6835;BME280;3455;42.150;24.734;2023-02-12T10:42:52;67516.53;;;21.39;20.18
6835;BME280;3455;42.150;24.734;2023-02-12T10:45:20;67522.28;;;21.55;20.13
6835;BME280;3455;42.150;24.734;2023-02-12T10:47:51;67491.13;;;21.26;20.33
6835;BME280;3455;42.150;24.734;2023-02-12T10:50:38;67637.88;;;22.28;19.60
6835;BME280;3455;42.150;24.734;2023-02-12T10:53:14;67495.03;;;21.20;20.46
6835;BME280;3455;42.150;24.734;2023-02-12T10:55:42;67388.47;;;20.49;21.36
6835;BME280;3455;42.150;24.734;2023-02-12T10:58:18;67788.63;;;23.51;18.78
6835;BME280;3455;42.150;24.734;2023-02-12T11:00:45;67790.88;;;23.49;18.33
6835;BME280;3455;42.150;24.734;2023-02-12T11:03:21;67908.50;;;24.02;18.31
6835;BME280;3455;42.150;24.734;2023-02-12T11:05:48;67636.50;;;22.49;19.00
6835;BME280;3455;42.150;24.734;2023-02-12T11:08:33;67459.41;;;20.79;20.39
6835;BME280;3455;42.150;24.734;2023-02-12T11:11:08;67598.44;;;22.02;19.85
6835;BME280;3455;42.150;24.734;2023-02-12T11:13:38;67637.38;;;22.32;19.88
6835;BME280;3455;42.150;24.734;2023-02-12T11:16:05;67469.63;;;20.75;20.57
6835;BME280;3455;42.150;24.734;2023-02-12T11:18:33;67548.16;;;21.44;20.14
6835;BME280;3455;42.150;24.734;2023-02-12T11:21:04;67626.06;;;22.08;19.76
6835;BME280;3455;42.150;24.734;2023-02-12T11:23:33;67606.44;;;22.00;19.30
6835;BME280;3455;42.150;24.734;2023-02-12T11:26:04;67766.09;;;23.09;18.49
6835;BME280;3455;42.150;24.734;2023-02-12T11:28:33;67773.91;;;23.29;18.12
6835;BME280;3455;42.150;24.734;2023-02-12T11:31:03;67504.59;;;21.10;19.67
6835;BME280;3455;42.150;24.734;2023-02-12T11:33:42;67453.16;;;20.83;20.21
6835;BME280;3455;42.150;24.734;2023-02-12T11:36:14;67454.94;;;20.69;20.52
6835;BME280;3455;42.150;24.734;2023-02-12T11:38:49;67149.22;;;18.01;22.53
6835;BME280;3455;42.150;24.734;2023-02-12T11:41:23;67174.66;;;18.35;22.80
6835;BME280;3455;42.150;24.734;2023-02-12T11:43:53;67174.44;;;18.37;22.96
6835;BME280;3455;42.150;24.734;2023-02-12T11:46:23;67140.16;;;18.34;23.00
6835;BME280;3455;42.150;24.734;2023-02-12T11:48:51;67254.31;;;18.98;22.57
6835;BME280;3455;42.150;24.734;2023-02-12T11:51:21;67213.69;;;18.62;22.46
6835;BME280;3455;42.150;24.734;2023-02-12T11:53:51;67125.75;;;17.82;23.26
6835;BME280;3455;42.150;24.734;2023-02-12T11:56:19;67151.88;;;18.21;23.25
6835;BME280;3455;42.150;24.734;2023-02-12T11:58:46;67148.94;;;17.87;23.35
6835;BME280;3455;42.150;24.734;2023-02-12T12:01:17;67158.50;;;18.09;23.34
6835;BME280;3455;42.150;24.734;2023-02-12T12:03:53;67217.78;;;18.82;22.70
6835;BME280;3455;42.150;24.734;2023-02-12T12:06:26;67262.56;;;19.10;22.34
6835;BME280;3455;42.150;24.734;2023-02-12T12:09:00;67190.66;;;18.51;23.21
6835;BME280;3455;42.150;24.734;2023-02-12T12:11:34;67048.97;;;17.44;24.38
6835;BME280;3455;42.150;24.734;2023-02-12T12:14:08;67218.81;;;18.62;23.25
6835;BME280;3455;42.150;24.734;2023-02-12T12:16:42;67140.94;;;18.00;23.86
6835;BME280;3455;42.150;24.734;2023-02-12T12:19:38;67285.56;;;19.05;22.44
6835;BME280;3455;42.150;24.734;2023-02-12T12:22:28;67255.50;;;19.31;22.66
6835;BME280;3455;42.150;24.734;2023-02-12T12:24:59;67345.47;;;19.63;22.08
6835;BME280;3455;42.150;24.734;2023-02-12T12:27:35;67180.53;;;18.28;23.43
6835;BME280;3455;42.150;24.734;2023-02-12T12:30:47;67225.00;;;18.86;22.37
6835;BME280;3455;42.150;24.734;2023-02-12T12:33:19;67153.84;;;18.05;23.66
6835;BME280;3455;42.150;24.734;2023-02-12T12:36:02;67154.44;;;17.78;24.25
6835;BME280;3455;42.150;24.734;2023-02-12T12:38:43;67016.44;;;16.83;24.79
6835;BME280;3455;42.150;24.734;2023-02-12T12:41:20;67137.69;;;17.68;24.34
6835;BME280;3455;42.150;24.734;2023-02-12T12:43:56;66948.19;;;16.27;25.40
6835;BME280;3455;42.150;24.734;2023-02-12T12:46:50;66982.53;;;16.94;25.08
6835;BME280;3455;42.150;24.734;2023-02-12T12:52:38;67129.38;;;17.51;24.10
6835;BME280;3455;42.150;24.734;2023-02-12T12:55:40;67031.00;;;16.73;25.15
6835;BME280;3455;42.150;24.734;2023-02-12T12:58:16;67069.97;;;17.12;24.98
6835;BME280;3455;42.150;24.734;2023-02-12T13:01:05;67062.13;;;17.19;25.04
6835;BME280;3455;42.150;24.734;2023-02-12T13:03:57;67131.75;;;17.69;24.07
6835;BME280;3455;42.150;24.734;2023-02-12T13:06:55;66998.19;;;16.81;25.09
6835;BME280;3455;42.150;24.734;2023-02-12T13:12:49;66867.81;;;15.61;26.33
6835;BME280;3455;42.150;24.734;2023-02-12T13:15:26;67000.34;;;16.62;25.68
6835;BME280;3455;42.150;24.734;2023-02-12T13:18:02;66958.22;;;16.45;25.68
6835;BME280;3455;42.150;24.734;2023-02-12T13:20:39;66916.34;;;15.99;26.06
6835;BME280;3455;42.150;24.734;2023-02-12T13:23:14;66965.94;;;16.07;26.35
6835;BME280;3455;42.150;24.734;2023-02-12T13:25:49;66907.00;;;15.86;26.36
6835;BME280;3455;42.150;24.734;2023-02-12T13:28:23;66851.13;;;15.50;26.86
6835;BME280;3455;42.150;24.734;2023-02-12T13:30:52;66847.94;;;15.34;27.27
6835;BME280;3455;42.150;24.734;2023-02-12T13:33:23;66933.25;;;15.80;26.71
6835;BME280;3455;42.150;24.734;2023-02-12T13:35:52;66962.38;;;16.26;26.18
6835;BME280;3455;42.150;24.734;2023-02-12T13:38:22;67001.19;;;16.88;25.62
6835;BME280;3455;42.150;24.734;2023-02-12T13:40:55;66913.25;;;16.14;25.98
6835;BME280;3455;42.150;24.734;2023-02-12T13:43:37;66878.03;;;15.61;26.87
6835;BME280;3455;42.150;24.734;2023-02-12T13:46:08;66951.75;;;16.08;26.23
6835;BME280;3455;42.150;24.734;2023-02-12T13:48:49;66894.97;;;15.57;27.14
6835;BME280;3455;42.150;24.734;2023-02-12T13:51:25;66967.50;;;16.26;26.35